map of AUM home
AUM - Airport
Location
City:  Austin, Minnesota, United States
Name:Austin Municipal Airport
ICAO:KAUM
IATA:AUM
FAA LID:AUM

Details
Type:Airport (Airfield)
Use:Public/Civil
Latitude:4339'46"N (43.662639)
Longitude:9255'58"W (-92.932916)
Datum:WGS 1984
Elevation:1233 ft (376 m)
Variation:0.07E (WMM2015v2 magnetic declination)
-0.05 annual change
Runways:1
Longest:5800 × 100 ft (1768 × 30.5 m), paved

Time
Time Zone:UTC-6 (DST-5)
Local Time:

Weather
METAR:KAUM 041416Z AUTO 29013KT 3SM -SN OVC009 M09/M13 A2975 RMK AO2

Related Locations
Nearby:
Farthest:YAUG: 10807 mi / 17392 km
Augusta [Augusta Airport], WA, AU

Find:

   beyond  
but within

Other Information
Maps:
NOTAMs:
Links:
Sources:

  
  • flag of United States
  • flag of Minnesota
  

Sectional Chart

Flight Planning
at skyvector.com

Satellite Image

Google Maps Satellite view

 

Copyright © 2004-2019 Karl L. Swartz. All rights reserved.
The Great Circle Mapper name and logo are trademarks of the Great Circle Mapper.
All other trademarks mentioned herein belong to their respective owners.
Please see credits for attibutions and further copyright information.

  Follow gcmap on Facebook Follow gcmap on Twitter GCmap on LinkedIn

hCard Microformat

Geo Microformat